createdAt,value
2022-12-17T00:00:06.717Z,101947.20
2022-12-17T00:01:47.143Z,101947.45
2022-12-17T00:03:07.871Z,101945.88
2022-12-17T00:04:28.141Z,101945.33
2022-12-17T00:05:48.461Z,101947.94
2022-12-17T00:07:08.374Z,101949.23
2022-12-17T00:08:29.068Z,101947.62
2022-12-17T00:09:50.495Z,101948.64
2022-12-17T00:11:10.668Z,101947.31
2022-12-17T00:12:30.857Z,101943.68
2022-12-17T00:13:51.641Z,101945.89
2022-12-17T00:15:12.183Z,101946.29
2022-12-17T00:16:32.593Z,101951.54
2022-12-17T00:17:52.929Z,101949.79
2022-12-17T00:19:14.983Z,101957.81
2022-12-17T00:20:34.999Z,101956.54
2022-12-17T00:21:56.284Z,101958.44
2022-12-17T00:23:23.105Z,101957.76
2022-12-17T00:24:43.853Z,101958.71
2022-12-17T00:26:12.843Z,101962.77
2022-12-17T00:27:33.170Z,101966.21
2022-12-17T00:28:53.391Z,101968.04
2022-12-17T00:30:15.590Z,101978.70
2022-12-17T00:31:35.891Z,101980.52
2022-12-17T00:32:56.184Z,101980.73
2022-12-17T00:34:16.829Z,101978.91
2022-12-17T00:35:37.743Z,101983.76
2022-12-17T00:36:57.737Z,101983.27
2022-12-17T00:38:19.374Z,101980.95
2022-12-17T00:39:39.816Z,101983.62
2022-12-17T00:41:00.749Z,101979.98
2022-12-17T00:42:20.969Z,101981.78
2022-12-17T00:43:41.412Z,101984.86
2022-12-17T00:45:02.074Z,101982.64
2022-12-17T00:46:22.605Z,101982.86
2022-12-17T00:47:42.792Z,101986.11
2022-12-17T00:49:04.414Z,101988.84
2022-12-17T00:50:25.288Z,101990.35
2022-12-17T00:51:46.175Z,101992.72
2022-12-17T00:53:06.848Z,101992.17
2022-12-17T00:54:27.344Z,101991.45
2022-12-17T00:55:47.712Z,101988.21
2022-12-17T00:57:08.010Z,101989.21
2022-12-17T00:58:28.605Z,101991.42
2022-12-17T00:59:49.076Z,101993.98
2022-12-17T01:01:09.469Z,101993.00
2022-12-17T01:02:30.023Z,101994.85
2022-12-17T01:03:52.457Z,101994.57
2022-12-17T01:05:12.557Z,101998.48
2022-12-17T01:06:33.005Z,102002.59
2022-12-17T01:07:54.841Z,102005.14
2022-12-17T01:09:16.865Z,102007.85
2022-12-17T01:10:36.962Z,102008.23
2022-12-17T01:11:57.093Z,102011.27
2022-12-17T01:13:17.402Z,102010.44
2022-12-17T01:14:37.575Z,102011.94
2022-12-17T01:15:57.950Z,102015.27
2022-12-17T01:17:18.529Z,102016.69
2022-12-17T01:18:39.249Z,102017.61
2022-12-17T01:19:59.627Z,102017.47
2022-12-17T01:21:19.855Z,102019.61
2022-12-17T01:22:40.038Z,102017.06
2022-12-17T01:24:00.645Z,102015.17
2022-12-17T01:25:20.950Z,102018.09
2022-12-17T01:26:41.171Z,102013.45
2022-12-17T01:28:01.386Z,102014.79
2022-12-17T01:29:21.981Z,102014.45
2022-12-17T01:30:42.193Z,102012.13
2022-12-17T01:32:04.802Z,102012.98
2022-12-17T01:33:28.233Z,102016.84
2022-12-17T01:34:49.343Z,102017.45
2022-12-17T01:36:16.643Z,102019.20
2022-12-17T01:37:37.064Z,102023.70
2022-12-17T01:38:57.518Z,102023.46
2022-12-17T01:40:18.178Z,102020.45
2022-12-17T01:41:38.644Z,102019.72
2022-12-17T01:43:02.068Z,102023.33
2022-12-17T01:45:00.544Z,102020.81
2022-12-17T01:46:21.180Z,102024.83
2022-12-17T01:48:06.428Z,102027.54
2022-12-17T01:49:28.770Z,102024.77
2022-12-17T01:50:57.822Z,102026.79
2022-12-17T01:52:18.947Z,102032.98
2022-12-17T01:53:43.584Z,102033.84
2022-12-17T01:55:05.001Z,102041.97
2022-12-17T01:56:25.999Z,102045.68
2022-12-17T01:57:47.554Z,102049.77
2022-12-17T01:59:07.731Z,102051.92
2022-12-17T02:00:32.069Z,102054.00
2022-12-17T02:01:52.944Z,102056.40
2022-12-17T02:03:14.242Z,102055.17
2022-12-17T02:04:34.576Z,102059.94
2022-12-17T02:06:08.552Z,102062.42
2022-12-17T02:07:48.332Z,102060.28
2022-12-17T02:09:11.774Z,102058.72
2022-12-17T02:10:42.257Z,102059.98
2022-12-17T02:12:41.321Z,102058.66
2022-12-17T02:14:13.530Z,102059.39
2022-12-17T02:15:52.855Z,102058.16
2022-12-17T02:17:18.383Z,102057.19
2022-12-17T02:18:50.056Z,102063.07
2022-12-17T02:20:41.068Z,102057.97
2022-12-17T02:22:02.583Z,102061.83
2022-12-17T02:36:42.015Z,102065.39
2022-12-17T02:38:06.845Z,102066.56
2022-12-17T02:39:27.266Z,102063.98
2022-12-17T02:40:47.727Z,102065.45
2022-12-17T02:42:11.328Z,102064.58
2022-12-17T02:43:31.957Z,102066.52
2022-12-17T02:44:53.345Z,102066.17
2022-12-17T02:46:14.687Z,102072.27
2022-12-17T02:47:38.238Z,102071.54
2022-12-17T02:48:59.336Z,102073.89
2022-12-17T02:50:21.769Z,102080.80
2022-12-17T02:51:44.303Z,102081.92
2022-12-17T02:53:06.687Z,102078.58
2022-12-17T02:54:27.181Z,102077.48
2022-12-17T02:55:47.547Z,102078.79
2022-12-17T02:57:07.916Z,102079.48
2022-12-17T02:58:28.183Z,102072.81
2022-12-17T02:59:48.703Z,102075.95
2022-12-17T03:01:09.194Z,102079.23
2022-12-17T03:02:30.208Z,102078.26
2022-12-17T03:03:50.725Z,102078.08
2022-12-17T03:05:42.687Z,102078.48
2022-12-17T03:06:51.966Z,102078.96
2022-12-17T03:08:14.127Z,102077.61
2022-12-17T03:09:34.484Z,102078.72
2022-12-17T03:10:55.102Z,102076.70
2022-12-17T03:12:15.241Z,102078.64
2022-12-17T03:13:46.546Z,102078.34
2022-12-17T03:15:07.356Z,102079.20
2022-12-17T03:16:37.070Z,102077.67
2022-12-17T03:17:57.522Z,102079.52
2022-12-17T03:19:17.836Z,102078.48
2022-12-17T03:20:38.352Z,102080.84
2022-12-17T03:22:00.041Z,102080.64
2022-12-17T03:23:28.704Z,102080.73
2022-12-17T03:24:49.575Z,102080.94
2022-12-17T03:26:10.033Z,102077.03
2022-12-17T03:27:31.037Z,102078.67
2022-12-17T03:28:51.387Z,102079.13
2022-12-17T03:30:11.598Z,102081.77
2022-12-17T03:31:31.692Z,102082.48
2022-12-17T03:32:52.154Z,102082.61
2022-12-17T03:34:12.365Z,102086.35
2022-12-17T03:35:32.400Z,102087.33
2022-12-17T03:36:53.079Z,102089.06
2022-12-17T03:38:13.177Z,102090.39
2022-12-17T03:39:33.081Z,102092.71
2022-12-17T03:40:53.224Z,102088.29
2022-12-17T03:42:13.645Z,102089.55
2022-12-17T03:43:33.999Z,102092.15
2022-12-17T03:44:54.561Z,102088.66
2022-12-17T03:46:15.377Z,102084.82
2022-12-17T03:47:36.259Z,102088.83
2022-12-17T03:48:56.802Z,102086.52
2022-12-17T03:50:17.051Z,102088.46
2022-12-17T03:51:36.947Z,102092.34
2022-12-17T03:52:57.075Z,102094.64
2022-12-17T03:54:17.349Z,102095.98
2022-12-17T03:55:37.226Z,102097.43
2022-12-17T03:56:57.272Z,102097.80
2022-12-17T03:58:17.751Z,102100.44
2022-12-17T03:59:38.120Z,102100.44
2022-12-17T04:00:58.348Z,102102.57
2022-12-17T04:02:18.419Z,102105.23
2022-12-17T04:03:39.839Z,102107.97
2022-12-17T04:05:00.787Z,102105.73
2022-12-17T04:06:21.184Z,102109.30
2022-12-17T04:07:41.641Z,102111.77
2022-12-17T04:09:01.951Z,102111.76
2022-12-17T04:10:22.507Z,102109.52
2022-12-17T04:11:42.582Z,102106.27
2022-12-17T04:13:02.930Z,102108.52
2022-12-17T04:14:23.501Z,102106.23
2022-12-17T04:15:43.605Z,102107.59
2022-12-17T04:17:03.897Z,102106.49
2022-12-17T04:18:23.712Z,102103.96
2022-12-17T04:19:44.097Z,102106.98
2022-12-17T04:21:04.311Z,102105.15
2022-12-17T04:22:24.589Z,102109.62
2022-12-17T04:23:44.842Z,102113.93
2022-12-17T04:25:05.265Z,102114.84
2022-12-17T04:26:25.409Z,102116.39
2022-12-17T04:27:45.329Z,102117.73
2022-12-17T04:29:05.519Z,102118.63
2022-12-17T04:30:26.766Z,102121.70
2022-12-17T04:31:47.141Z,102121.05
2022-12-17T04:33:06.959Z,102125.73
2022-12-17T04:34:27.124Z,102129.94
2022-12-17T04:35:47.554Z,102128.65
2022-12-17T04:37:07.971Z,102133.73
2022-12-17T04:38:28.207Z,102135.84
2022-12-17T04:39:48.692Z,102137.54
2022-12-17T04:41:08.998Z,102138.44
2022-12-17T04:42:29.428Z,102137.12
2022-12-17T04:43:49.659Z,102132.98
2022-12-17T04:45:09.555Z,102137.39
2022-12-17T04:46:30.171Z,102138.52
2022-12-17T04:47:50.597Z,102140.93
2022-12-17T04:49:10.683Z,102145.63
2022-12-17T04:50:30.550Z,102142.44
2022-12-17T04:51:50.775Z,102146.08
2022-12-17T04:53:19.144Z,102141.35
2022-12-17T04:54:39.394Z,102142.23
2022-12-17T04:55:59.701Z,102145.74
2022-12-17T04:57:20.104Z,102147.15
2022-12-17T04:58:40.628Z,102150.13
2022-12-17T05:00:00.530Z,102149.55
2022-12-17T05:01:20.695Z,102147.45
2022-12-17T05:02:42.757Z,102151.50
2022-12-17T05:04:03.228Z,102147.30
2022-12-17T05:05:24.066Z,102154.78
2022-12-17T05:06:44.000Z,102154.58
2022-12-17T05:08:04.339Z,102149.38
2022-12-17T05:09:24.565Z,102150.50
2022-12-17T05:10:44.519Z,102152.06
2022-12-17T05:12:04.446Z,102153.67
2022-12-17T05:13:24.766Z,102158.75
2022-12-17T05:14:45.176Z,102157.23
2022-12-17T05:16:05.597Z,102157.63
2022-12-17T05:17:25.845Z,102161.14
2022-12-17T05:18:46.213Z,102163.20
2022-12-17T05:20:06.253Z,102158.86
2022-12-17T05:21:30.577Z,102160.39
2022-12-17T05:22:53.546Z,102160.48
2022-12-17T05:24:14.051Z,102161.80
2022-12-17T05:25:34.270Z,102161.55
2022-12-17T05:26:54.461Z,102166.61
2022-12-17T05:28:17.391Z,102163.10
2022-12-17T05:29:37.715Z,102167.08
2022-12-17T05:30:57.977Z,102163.44
2022-12-17T05:32:18.193Z,102166.75
2022-12-17T05:33:38.736Z,102172.23
2022-12-17T05:34:59.239Z,102167.76
2022-12-17T05:36:20.053Z,102172.73
2022-12-17T05:37:40.558Z,102173.17
2022-12-17T05:39:00.790Z,102173.41
2022-12-17T05:40:21.802Z,102175.57
2022-12-17T05:41:42.208Z,102177.54
2022-12-17T05:43:13.122Z,102177.27
2022-12-17T05:44:33.088Z,102181.17
2022-12-17T05:45:53.097Z,102184.70
2022-12-17T05:47:13.311Z,102185.27
2022-12-17T05:48:33.327Z,102187.73
2022-12-17T05:49:53.631Z,102191.52
2022-12-17T05:51:16.673Z,102193.21
2022-12-17T05:52:36.814Z,102194.52
2022-12-17T05:53:56.764Z,102199.58
2022-12-17T05:55:16.761Z,102202.25
2022-12-17T05:56:37.059Z,102204.35
2022-12-17T05:57:57.554Z,102207.09
2022-12-17T05:59:17.636Z,102209.77
2022-12-17T06:00:37.758Z,102212.15
2022-12-17T06:01:58.224Z,102218.56
2022-12-17T06:03:21.111Z,102218.09
2022-12-17T06:04:41.771Z,102216.63
2022-12-17T06:06:02.266Z,102219.61
2022-12-17T06:07:22.721Z,102220.48
2022-12-17T06:08:42.836Z,102222.01
2022-12-17T06:10:02.982Z,102223.52
2022-12-17T06:11:23.303Z,102223.39
2022-12-17T06:12:43.532Z,102224.56
2022-12-17T06:14:04.957Z,102223.92
2022-12-17T06:15:25.710Z,102226.59
2022-12-17T06:16:46.061Z,102228.05
2022-12-17T06:18:16.907Z,102230.25
2022-12-17T06:19:37.616Z,102230.42
2022-12-17T06:20:58.029Z,102231.23
2022-12-17T06:22:18.836Z,102227.73
2022-12-17T06:23:39.346Z,102229.42
2022-12-17T06:24:59.533Z,102231.09
2022-12-17T06:26:19.825Z,102231.81
2022-12-17T06:27:39.834Z,102234.77
2022-12-17T06:29:00.973Z,102229.78
2022-12-17T06:30:21.710Z,102236.90
2022-12-17T06:31:41.865Z,102240.85
2022-12-17T06:33:02.065Z,102238.24
2022-12-17T06:34:22.306Z,102237.16
2022-12-17T06:35:42.699Z,102237.70
2022-12-17T06:37:03.544Z,102238.71
2022-12-17T06:38:23.946Z,102239.52
2022-12-17T06:39:44.429Z,102240.02
2022-12-17T06:41:04.735Z,102239.14
2022-12-17T06:42:24.650Z,102243.03
2022-12-17T06:43:45.117Z,102245.05
2022-12-17T06:45:05.645Z,102246.05
2022-12-17T06:46:26.128Z,102250.23
2022-12-17T06:47:46.481Z,102247.13
2022-12-17T06:49:06.969Z,102247.38
2022-12-17T06:50:27.343Z,102247.77
2022-12-17T06:51:47.793Z,102251.40
2022-12-17T06:53:19.767Z,102255.83
2022-12-17T06:54:40.091Z,102257.00
2022-12-17T06:56:00.450Z,102266.83
2022-12-17T06:57:20.453Z,102265.95
2022-12-17T06:58:40.913Z,102269.92
2022-12-17T07:00:01.189Z,102266.91
2022-12-17T07:01:21.858Z,102270.76
2022-12-17T07:02:42.433Z,102265.29
2022-12-17T07:04:03.041Z,102266.91
2022-12-17T07:05:23.550Z,102264.34
2022-12-17T07:06:43.911Z,102269.44
2022-12-17T07:08:04.038Z,102271.56
2022-12-17T07:09:24.429Z,102269.67
2022-12-17T07:10:44.815Z,102271.13
2022-12-17T07:12:05.579Z,102272.05
2022-12-17T07:13:27.109Z,102275.02
2022-12-17T07:14:47.545Z,102276.77
2022-12-17T07:16:09.378Z,102276.83
2022-12-17T07:17:30.651Z,102284.56
2022-12-17T07:18:50.799Z,102283.66
2022-12-17T07:20:10.910Z,102281.55
2022-12-17T07:21:30.936Z,102286.12
2022-12-17T07:22:51.067Z,102284.16
2022-12-17T07:24:11.535Z,102286.73
2022-12-17T07:25:31.877Z,102284.98
2022-12-17T07:26:52.137Z,102285.13
2022-12-17T07:28:13.752Z,102290.48
2022-12-17T07:29:33.880Z,102293.09
2022-12-17T07:30:55.860Z,102294.25
2022-12-17T07:32:16.356Z,102296.51
2022-12-17T07:33:37.101Z,102298.75
2022-12-17T07:34:59.217Z,102300.02
2022-12-17T07:36:19.410Z,102298.14
2022-12-17T07:37:39.303Z,102302.50
2022-12-17T07:38:59.553Z,102305.58
2022-12-17T07:40:20.052Z,102305.10
2022-12-17T07:41:40.637Z,102309.15
2022-12-17T07:43:01.504Z,102308.44
2022-12-17T07:44:21.967Z,102312.97
2022-12-17T07:45:42.122Z,102310.08
2022-12-17T07:47:02.461Z,102312.67
2022-12-17T07:48:23.146Z,102312.13
2022-12-17T07:49:43.555Z,102314.34
2022-12-17T07:51:08.412Z,102313.73
2022-12-17T07:52:28.463Z,102312.48
2022-12-17T07:53:48.598Z,102317.42
2022-12-17T07:55:08.784Z,102318.09
2022-12-17T07:56:29.265Z,102320.27
2022-12-17T07:57:49.499Z,102316.33
2022-12-17T07:59:09.754Z,102314.63
2022-12-17T08:00:31.127Z,102320.95
2022-12-17T08:01:51.344Z,102322.19
2022-12-17T08:03:18.893Z,102322.75
2022-12-17T08:04:38.840Z,102326.05
2022-12-17T08:05:59.154Z,102323.20
2022-12-17T08:07:19.299Z,102325.32
2022-12-17T08:08:39.237Z,102324.52
2022-12-17T08:09:59.297Z,102323.39
2022-12-17T08:11:19.887Z,102321.23
2022-12-17T08:12:40.289Z,102319.67
2022-12-17T08:14:00.518Z,102322.50
2022-12-17T08:15:20.614Z,102328.09
2022-12-17T08:16:41.167Z,102327.90
2022-12-17T08:18:01.539Z,102324.27
2022-12-17T08:19:21.973Z,102325.95
2022-12-17T08:20:42.165Z,102324.58
2022-12-17T08:22:02.559Z,102322.06
2022-12-17T08:23:24.215Z,102320.13
2022-12-17T08:24:44.226Z,102325.02
2022-12-17T08:26:04.476Z,102322.42
2022-12-17T08:27:25.075Z,102325.42
2022-12-17T08:28:52.630Z,102318.40
2022-12-17T08:30:12.965Z,102323.57
2022-12-17T08:31:33.378Z,102323.90
2022-12-17T08:32:53.659Z,102323.23
2022-12-17T08:34:13.936Z,102325.73
2022-12-17T08:35:34.130Z,102328.38
2022-12-17T08:36:54.612Z,102325.27
2022-12-17T08:38:24.724Z,102326.94
2022-12-17T08:39:45.063Z,102325.79
2022-12-17T08:41:05.641Z,102327.46
2022-12-17T08:42:25.773Z,102330.39
2022-12-17T08:43:46.061Z,102330.73
2022-12-17T08:45:06.327Z,102332.08
2022-12-17T08:46:26.397Z,102332.56
2022-12-17T08:47:46.699Z,102331.89
2022-12-17T08:49:07.305Z,102329.38
2022-12-17T08:50:27.673Z,102333.70
2022-12-17T08:51:47.778Z,102335.54
2022-12-17T08:53:07.911Z,102337.35
2022-12-17T08:54:28.675Z,102337.91
2022-12-17T08:55:49.026Z,102338.52
2022-12-17T08:57:09.579Z,102339.53
2022-12-17T08:58:29.918Z,102339.91
2022-12-17T08:59:50.399Z,102341.63
2022-12-17T09:01:11.088Z,102342.69
2022-12-17T09:02:31.425Z,102342.23
2022-12-17T09:03:51.759Z,102339.18
2022-12-17T09:05:23.106Z,102341.27
2022-12-17T09:06:43.442Z,102343.52
2022-12-17T09:08:03.611Z,102340.95
2022-12-17T09:09:24.164Z,102345.89
2022-12-17T09:10:44.828Z,102343.35
2022-12-17T09:12:05.061Z,102344.31
2022-12-17T09:13:25.186Z,102350.04
2022-12-17T09:14:45.625Z,102351.23
2022-12-17T09:16:13.983Z,102349.52
2022-12-17T09:17:34.288Z,102346.90
2022-12-17T09:18:54.460Z,102349.98
2022-12-17T09:20:14.498Z,102350.41
2022-12-17T09:21:34.953Z,102347.84
2022-12-17T09:22:55.253Z,102348.91
2022-12-17T09:24:15.155Z,102346.69
2022-12-17T09:25:35.411Z,102344.84
2022-12-17T09:26:55.893Z,102347.38
2022-12-17T09:28:20.253Z,102346.38
2022-12-17T09:29:40.418Z,102347.71
2022-12-17T09:31:00.502Z,102346.55
2022-12-17T09:32:20.909Z,102342.08
2022-12-17T09:33:41.245Z,102338.98
2022-12-17T09:35:01.132Z,102337.48
2022-12-17T09:36:23.178Z,102339.27
2022-12-17T09:37:43.926Z,102340.54
2022-12-17T09:39:04.028Z,102337.69
2022-12-17T09:40:24.761Z,102338.16
2022-12-17T09:41:55.137Z,102337.71
2022-12-17T09:43:23.565Z,102340.92
2022-12-17T09:45:09.047Z,102341.35
2022-12-17T09:46:36.497Z,102343.23
2022-12-17T09:47:56.713Z,102343.54
2022-12-17T09:49:23.248Z,102345.54
2022-12-17T09:50:43.912Z,102343.58
2022-12-17T09:52:04.960Z,102345.57
2022-12-17T09:53:39.663Z,102346.27
2022-12-17T09:55:04.783Z,102347.20
2022-12-17T09:56:28.543Z,102347.17
2022-12-17T09:57:52.190Z,102349.80
2022-12-17T09:59:12.355Z,102354.01
2022-12-17T10:00:39.249Z,102351.91
2022-12-17T10:02:00.089Z,102353.17
2022-12-17T10:03:22.595Z,102356.98
2022-12-17T10:04:45.896Z,102357.48
2022-12-17T10:06:07.572Z,102354.59
2022-12-17T10:07:33.483Z,102358.96
2022-12-17T10:09:01.131Z,102358.34
2022-12-17T10:10:37.625Z,102356.64
2022-12-17T10:11:57.753Z,102357.20
2022-12-17T10:13:18.092Z,102356.88
2022-12-17T10:14:44.330Z,102359.85
2022-12-17T10:16:06.252Z,102362.61
2022-12-17T10:17:35.141Z,102358.85
2022-12-17T10:18:56.905Z,102356.55
2022-12-17T10:20:17.662Z,102356.84
2022-12-17T10:21:37.946Z,102353.73
2022-12-17T10:23:03.816Z,102354.50
2022-12-17T10:24:26.131Z,102355.43
2022-12-17T10:25:46.507Z,102354.91
2022-12-17T10:27:06.844Z,102355.09
2022-12-17T10:28:39.099Z,102356.61
2022-12-17T10:30:02.529Z,102358.97
2022-12-17T10:31:29.992Z,102359.57
2022-12-17T10:32:50.082Z,102361.52
2022-12-17T10:34:16.410Z,102361.29
2022-12-17T10:35:45.283Z,102362.27
2022-12-17T10:37:11.712Z,102364.04
2022-12-17T10:38:39.030Z,102364.20
2022-12-17T10:40:00.393Z,102369.30
2022-12-17T10:41:20.909Z,102361.25
2022-12-17T10:42:45.733Z,102361.23
2022-12-17T10:44:06.062Z,102359.19
2022-12-17T10:45:43.573Z,102359.40
2022-12-17T10:47:04.165Z,102361.27
2022-12-17T10:48:42.894Z,102357.59
2022-12-17T10:50:02.848Z,102361.60
2022-12-17T10:51:23.813Z,102359.10
2022-12-17T10:52:50.136Z,102360.41
2022-12-17T10:54:11.744Z,102354.45
2022-12-17T10:55:43.228Z,102350.59
2022-12-17T10:57:11.264Z,102351.40
2022-12-17T10:58:38.296Z,102353.10
2022-12-17T10:59:58.683Z,102355.07
2022-12-17T11:01:20.757Z,102352.27
2022-12-17T11:02:46.839Z,102350.89
2022-12-17T11:04:16.258Z,102351.08
2022-12-17T11:05:45.296Z,102355.44
2022-12-17T11:07:11.074Z,102355.12
2022-12-17T11:08:33.471Z,102354.20
2022-12-17T11:10:09.089Z,102353.08
2022-12-17T11:11:32.303Z,102351.77
2022-12-17T11:13:14.648Z,102352.60
2022-12-17T11:14:35.054Z,102350.20
2022-12-17T11:16:00.728Z,102351.13
2022-12-17T11:17:26.113Z,102352.89
2022-12-17T11:19:09.115Z,102353.30
2022-12-17T11:20:47.072Z,102358.00
2022-12-17T11:22:10.180Z,102362.09
2022-12-17T11:23:36.818Z,102363.75
2022-12-17T11:25:13.778Z,102365.58
2022-12-17T11:26:36.653Z,102363.41
2022-12-17T11:28:06.318Z,102358.52
2022-12-17T11:29:31.291Z,102364.30
2022-12-17T11:31:04.431Z,102362.60
2022-12-17T11:32:57.650Z,102360.61
2022-12-17T11:34:33.342Z,102359.35
2022-12-17T11:36:05.612Z,102360.84
2022-12-17T11:37:35.149Z,102358.16
2022-12-17T11:38:59.385Z,102357.59
2022-12-17T11:40:41.868Z,102358.61
2022-12-17T11:42:14.870Z,102358.06
2022-12-17T11:43:40.570Z,102360.73
2022-12-17T11:45:14.442Z,102359.06
2022-12-17T11:47:03.651Z,102357.88
2022-12-17T11:48:29.162Z,102361.88
2022-12-17T11:49:52.197Z,102365.47
2022-12-17T11:51:21.263Z,102367.35
2022-12-17T11:53:07.923Z,102364.48
2022-12-17T11:54:48.280Z,102366.15
2022-12-17T11:56:33.942Z,102367.11
2022-12-17T11:58:15.702Z,102370.94
2022-12-17T11:59:52.518Z,102367.09
2022-12-17T12:01:42.244Z,102370.58
2022-12-17T12:03:21.689Z,102373.27
2022-12-17T12:05:16.668Z,102370.20
2022-12-17T12:07:03.219Z,102369.59
2022-12-17T12:08:31.484Z,102371.24
2022-12-17T12:10:18.302Z,102371.17
2022-12-17T12:12:05.065Z,102372.15
2022-12-17T12:13:56.918Z,102373.27
2022-12-17T12:15:35.860Z,102375.47
2022-12-17T12:17:11.075Z,102369.79
2022-12-17T12:18:38.472Z,102373.58
2022-12-17T12:20:10.097Z,102370.80
2022-12-17T12:21:50.342Z,102373.23
2022-12-17T12:23:38.139Z,102372.73
2022-12-17T12:25:13.756Z,102370.64
2022-12-17T12:26:50.538Z,102367.63
2022-12-17T12:28:16.886Z,102367.19
2022-12-17T12:30:18.658Z,102365.36
2022-12-17T12:31:57.421Z,102364.98
2022-12-17T12:33:39.470Z,102367.84
2022-12-17T12:35:01.082Z,102365.80
2022-12-17T12:36:27.121Z,102366.35
2022-12-17T12:37:57.168Z,102364.55
2022-12-17T12:39:18.179Z,102362.73
2022-12-17T12:40:53.527Z,102368.04
2022-12-17T12:42:59.323Z,102368.72
2022-12-17T12:44:30.911Z,102369.24
2022-12-17T12:46:05.632Z,102369.52
2022-12-17T12:47:36.704Z,102371.87
2022-12-17T12:49:10.874Z,102371.64
2022-12-17T12:51:00.485Z,102373.10
2022-12-17T12:52:21.553Z,102371.86
2022-12-17T12:53:41.733Z,102369.96
2022-12-17T12:55:04.619Z,102373.00
2022-12-17T12:56:45.871Z,102373.23
2022-12-17T12:58:41.648Z,102374.18
2022-12-17T13:00:07.871Z,102372.69
2022-12-17T13:01:33.275Z,102376.25
2022-12-17T13:02:54.016Z,102376.66
2022-12-17T13:04:16.545Z,102379.59
2022-12-17T13:05:38.704Z,102377.83
2022-12-17T13:06:54.011Z,102376.96
2022-12-17T13:08:23.765Z,102379.47
2022-12-17T13:09:33.831Z,102377.64
2022-12-17T13:10:37.068Z,102380.73
2022-12-17T13:11:38.682Z,102378.92
2022-12-17T13:12:45.680Z,102379.84
2022-12-17T13:13:55.349Z,102383.66
2022-12-17T13:15:05.938Z,102386.02
2022-12-17T13:16:27.939Z,102384.33
2022-12-17T13:17:37.207Z,102386.95
2022-12-17T13:18:40.047Z,102387.30
2022-12-17T13:19:58.247Z,102385.68
2022-12-17T13:21:02.496Z,102389.23
2022-12-17T13:22:23.387Z,102387.77
2022-12-17T13:23:36.552Z,102393.79
2022-12-17T13:24:38.580Z,102389.36
2022-12-17T13:25:41.485Z,102391.67
2022-12-17T13:26:44.569Z,102392.27
2022-12-17T13:27:47.309Z,102392.69
2022-12-17T13:29:01.776Z,102390.95
2022-12-17T13:30:21.781Z,102394.73
2022-12-17T13:31:29.663Z,102396.63
2022-12-17T13:32:39.879Z,102402.89
2022-12-17T13:33:47.471Z,102402.02
2022-12-17T13:35:27.073Z,102405.34
2022-12-17T13:36:46.564Z,102409.27
2022-12-17T13:38:02.075Z,102409.30
2022-12-17T13:39:25.701Z,102415.06
2022-12-17T13:41:10.192Z,102417.92
2022-12-17T13:42:19.562Z,102417.72
2022-12-17T13:43:26.762Z,102418.49
2022-12-17T13:44:39.651Z,102420.34
2022-12-17T13:45:43.315Z,102426.02
2022-12-17T13:46:49.592Z,102423.90
2022-12-17T13:47:54.360Z,102426.69
2022-12-17T13:49:00.654Z,102428.65
2022-12-17T13:50:36.139Z,102429.02
2022-12-17T13:51:38.382Z,102431.23
2022-12-17T13:52:40.006Z,102432.49
2022-12-17T13:53:52.263Z,102432.04
2022-12-17T13:55:05.590Z,102433.30
2022-12-17T13:56:09.788Z,102431.27
2022-12-17T13:57:16.039Z,102434.73
2022-12-17T13:58:22.562Z,102436.55
2022-12-17T13:59:24.611Z,102436.72
2022-12-17T14:00:29.000Z,102434.95
2022-12-17T14:01:31.463Z,102438.26
2022-12-17T14:02:38.350Z,102436.20
2022-12-17T14:05:33.256Z,102439.67
2022-12-17T14:06:37.757Z,102441.51
2022-12-17T14:07:39.906Z,102442.00
2022-12-17T14:08:41.907Z,102446.13
2022-12-17T14:09:43.621Z,102442.88
2022-12-17T14:11:13.831Z,102445.22
2022-12-17T14:12:23.318Z,102444.44
2022-12-17T14:13:25.034Z,102444.41
2022-12-17T14:14:31.851Z,102442.85
2022-12-17T14:15:34.168Z,102444.67
2022-12-17T14:16:36.745Z,102441.02
2022-12-17T14:17:44.417Z,102446.33
2022-12-17T14:18:53.046Z,102445.89
2022-12-17T14:20:02.018Z,102445.45
2022-12-17T14:21:05.226Z,102446.00
2022-12-17T14:22:14.814Z,102448.27
2022-12-17T14:23:29.101Z,102451.98
2022-12-17T14:24:31.049Z,102449.72
2022-12-17T14:25:38.658Z,102451.17
2022-12-17T14:26:51.038Z,102455.95
2022-12-17T14:28:00.198Z,102461.34
2022-12-17T14:29:12.857Z,102463.14
2022-12-17T14:30:32.904Z,102470.08
2022-12-17T14:31:35.590Z,102470.13
2022-12-17T14:32:37.294Z,102472.43
2022-12-17T14:33:39.727Z,102471.85
2022-12-17T14:34:42.125Z,102471.77
2022-12-17T14:35:51.634Z,102475.76
2022-12-17T14:36:59.198Z,102479.70
2022-12-17T14:38:02.175Z,102481.23
2022-12-17T14:39:18.082Z,102479.51
2022-12-17T14:40:21.536Z,102480.60
2022-12-17T14:41:42.514Z,102482.83
2022-12-17T14:42:44.105Z,102484.22
2022-12-17T14:43:45.764Z,102484.09
2022-12-17T14:44:50.843Z,102487.15
2022-12-17T14:46:29.870Z,102488.95
2022-12-17T14:47:34.849Z,102489.27
2022-12-17T14:48:55.688Z,102488.30
2022-12-17T14:50:06.113Z,102489.35
2022-12-17T14:51:30.804Z,102492.08
2022-12-17T14:52:45.225Z,102493.56
2022-12-17T14:53:46.943Z,102490.92
2022-12-17T14:54:48.587Z,102494.73
2022-12-17T14:55:56.685Z,102493.48
2022-12-17T14:57:00.024Z,102493.98
2022-12-17T14:58:14.207Z,102495.27
2022-12-17T14:59:31.068Z,102496.79
2022-12-17T15:00:33.934Z,102500.89
2022-12-17T15:01:35.899Z,102500.21
2022-12-17T15:02:38.003Z,102502.23
2022-12-17T15:03:42.618Z,102503.06
2022-12-17T15:04:44.411Z,102503.48
2022-12-17T15:05:51.449Z,102502.87
2022-12-17T15:06:55.092Z,102507.20
2022-12-17T15:07:56.712Z,102504.55
2022-12-17T15:08:58.312Z,102505.65
2022-12-17T15:10:00.141Z,102507.77
2022-12-17T15:11:02.655Z,102508.52
2022-12-17T15:12:04.809Z,102510.45
2022-12-17T15:13:07.109Z,102511.52
2022-12-17T15:14:08.711Z,102510.71
2022-12-17T15:15:15.060Z,102511.69
2022-12-17T15:16:16.833Z,102509.97
2022-12-17T15:17:18.723Z,102510.66
2022-12-17T15:18:20.300Z,102512.92
2022-12-17T15:19:22.214Z,102512.26
2022-12-17T15:20:23.814Z,102515.14
2022-12-17T15:21:26.351Z,102513.51
2022-12-17T15:22:28.053Z,102517.54
2022-12-17T15:23:30.468Z,102522.02
2022-12-17T15:24:31.994Z,102522.41
2022-12-17T15:25:35.641Z,102522.82
2022-12-17T15:26:39.350Z,102521.45
2022-12-17T15:27:41.415Z,102525.66
2022-12-17T15:28:43.674Z,102524.27
2022-12-17T15:29:45.540Z,102528.36
2022-12-17T15:30:48.907Z,102526.55
2022-12-17T15:31:50.922Z,102526.35
2022-12-17T15:32:52.904Z,102525.36
2022-12-17T15:33:54.440Z,102531.15
2022-12-17T15:34:56.137Z,102531.87
2022-12-17T15:35:58.622Z,102531.64